Time;durP1;ratioP1;P1;durP2;ratioP2;P2;SDS_P1;SDS_P2;PMS_P1;PMS_P2;Temp;Humidity;BMP_temperature;BMP_pressure;BME280_temperature;BME280_humidity;BME280_pressure;Samples;Min_cycle;Max_cycle;Signal;HPM_P1;HPM_P2
2023/05/27 00:02:34;;;;;;;24.80;11.60;;;23.20;54.20;;;;;;6100064;28;83247;-58
2023/05/27 00:05:35;;;;;;;21.85;10.73;;;23.20;54.20;;;;;;6122244;28;85909;-58
2023/05/27 00:08:35;;;;;;;24.90;10.35;;;23.30;54.30;;;;;;6124292;28;83276;-57
2023/05/27 00:11:36;;;;;;;20.77;10.20;;;23.20;54.70;;;;;;6124305;28;82755;-57
2023/05/27 00:14:36;;;;;;;20.63;9.23;;;23.20;54.00;;;;;;6124568;28;83024;-58
2023/05/27 00:17:39;;;;;;;20.83;9.27;;;23.20;54.00;;;;;;6126465;28;81786;-59
2023/05/27 00:20:39;;;;;;;17.95;8.45;;;23.20;54.00;;;;;;6127736;28;80614;-58
2023/05/27 00:23:40;;;;;;;19.17;9.05;;;23.20;53.90;;;;;;6127792;28;81516;-58
2023/05/27 00:26:40;;;;;;;20.02;9.43;;;23.20;54.00;;;;;;6128347;28;81131;-58
2023/05/27 00:29:41;;;;;;;19.02;8.82;;;23.20;53.90;;;;;;6124857;28;81754;-58
2023/05/27 00:32:41;;;;;;;17.70;7.93;;;23.20;53.90;;;;;;6126757;28;80172;-58
2023/05/27 00:35:42;;;;;;;16.45;8.75;;;23.20;53.80;;;;;;6118599;28;83313;-58
2023/05/27 00:38:42;;;;;;;17.98;7.70;;;23.20;53.80;;;;;;6126381;28;81073;-58
2023/05/27 00:41:43;;;;;;;18.77;7.72;;;23.10;53.80;;;;;;6123956;28;80557;-58
2023/05/27 00:44:43;;;;;;;16.30;8.25;;;23.10;53.80;;;;;;6129373;28;82733;-58
2023/05/27 00:47:44;;;;;;;13.68;6.97;;;23.20;54.00;;;;;;6120431;28;80519;-59
2023/05/27 00:50:45;;;;;;;12.90;6.68;;;23.10;54.00;;;;;;6124687;28;83156;-59
2023/05/27 00:53:45;;;;;;;20.70;8.23;;;23.10;54.10;;;;;;6118373;28;83101;-58
2023/05/27 00:56:46;;;;;;;13.52;6.75;;;23.10;54.20;;;;;;6115225;28;83289;-59
2023/05/27 00:59:46;;;;;;;14.15;6.50;;;23.10;54.20;;;;;;6115808;28;80317;-59
2023/05/27 01:02:47;;;;;;;14.43;7.47;;;23.10;54.40;;;;;;6114081;28;82825;-59
2023/05/27 01:05:47;;;;;;;17.50;6.93;;;23.10;54.40;;;;;;6135360;28;82413;-59
2023/05/27 01:08:48;;;;;;;13.93;6.00;;;23.10;54.40;;;;;;6120430;28;80819;-60
2023/05/27 01:11:48;;;;;;;11.88;6.30;;;23.10;54.40;;;;;;6109947;28;80715;-60
2023/05/27 01:14:49;;;;;;;15.02;6.30;;;23.10;54.50;;;;;;6122638;28;83516;-60
2023/05/27 01:17:49;;;;;;;14.93;7.15;;;23.10;54.60;;;;;;6117975;28;80963;-60
2023/05/27 01:20:50;;;;;;;14.10;5.80;;;23.10;54.50;;;;;;6130354;28;81749;-59
2023/05/27 01:23:50;;;;;;;13.25;6.45;;;23.10;54.50;;;;;;6132171;28;80557;-59
2023/05/27 01:26:51;;;;;;;11.35;6.03;;;23.10;54.50;;;;;;6130782;28;82693;-58
2023/05/27 01:29:52;;;;;;;13.65;5.80;;;23.20;54.50;;;;;;6122783;28;83304;-59
2023/05/27 01:32:52;;;;;;;17.45;6.88;;;23.10;54.50;;;;;;6128702;28;83635;-59
2023/05/27 01:35:53;;;;;;;12.57;6.18;;;23.10;54.50;;;;;;6129096;28;83185;-59
2023/05/27 01:38:54;;;;;;;9.90;5.80;;;23.10;54.50;;;;;;6128870;28;82859;-58
2023/05/27 01:41:54;;;;;;;12.52;5.93;;;23.10;54.50;;;;;;6132007;28;80596;-59
2023/05/27 01:44:56;;;;;;;12.20;5.78;;;23.10;54.40;;;;;;6120151;28;81807;-60
2023/05/27 01:47:56;;;;;;;12.23;5.72;;;23.20;54.40;;;;;;6121410;28;84207;-59
2023/05/27 01:50:57;;;;;;;10.65;5.57;;;23.20;54.40;;;;;;6106776;28;80588;-60
2023/05/27 01:53:57;;;;;;;10.43;5.20;;;23.10;54.40;;;;;;6125725;28;83395;-60
2023/05/27 01:56:58;;;;;;;13.88;6.00;;;23.10;54.30;;;;;;6121900;28;81898;-59
2023/05/27 01:59:58;;;;;;;10.95;5.40;;;23.10;54.30;;;;;;6113746;28;83817;-60
2023/05/27 02:02:59;;;;;;;11.27;4.93;;;23.10;54.20;;;;;;6129738;28;83521;-59
2023/05/27 02:05:59;;;;;;;13.77;5.40;;;23.10;54.30;;;;;;6129926;28;80669;-60
2023/05/27 02:09:00;;;;;;;10.45;5.32;;;23.10;54.30;;;;;;6129845;28;80496;-60
2023/05/27 02:12:01;;;;;;;6.88;4.35;;;23.10;54.40;;;;;;6120400;28;82393;-59
2023/05/27 02:15:03;;;;;;;11.48;5.47;;;23.10;54.30;;;;;;6105879;28;81738;-61
2023/05/27 02:18:04;;;;;;;10.07;4.82;;;23.10;54.30;;;;;;6130687;28;83557;-59
2023/05/27 02:21:06;;;;;;;10.15;5.05;;;23.00;54.30;;;;;;6135605;28;82225;-60
2023/05/27 02:24:06;;;;;;;14.55;5.32;;;23.10;54.30;;;;;;6161009;28;83079;-59
2023/05/27 02:27:07;;;;;;;11.20;5.07;;;23.00;54.20;;;;;;6120849;28;83030;-57
2023/05/27 02:30:07;;;;;;;9.40;4.63;;;23.10;54.30;;;;;;6123606;28;83335;-57
2023/05/27 02:33:08;;;;;;;9.50;4.55;;;23.10;54.30;;;;;;6120235;28;80417;-58
2023/05/27 02:36:10;;;;;;;11.45;5.28;;;23.10;54.30;;;;;;6117524;28;81608;-58
2023/05/27 02:39:11;;;;;;;9.65;4.80;;;23.10;54.40;;;;;;6107071;28;81437;-58
2023/05/27 02:42:11;;;;;;;10.82;4.80;;;23.10;54.40;;;;;;6105946;28;80243;-59
2023/05/27 02:45:12;;;;;;;8.88;4.43;;;23.10;54.60;;;;;;6120631;28;81850;-58
2023/05/27 02:48:12;;;;;;;9.00;4.93;;;23.00;54.50;;;;;;6117871;28;83024;-59
2023/05/27 02:51:13;;;;;;;8.23;4.90;;;23.00;54.60;;;;;;6120240;28;82618;-59
2023/05/27 02:54:13;;;;;;;8.63;4.47;;;23.00;54.50;;;;;;6112152;28;83111;-62
2023/05/27 02:57:14;;;;;;;7.97;4.30;;;23.10;54.50;;;;;;6120923;28;81174;-60
2023/05/27 03:00:15;;;;;;;9.75;5.13;;;23.00;54.40;;;;;;6123610;28;82405;-60
2023/05/27 03:03:15;;;;;;;9.30;4.72;;;23.00;54.40;;;;;;6128841;28;80535;-62
2023/05/27 03:06:16;;;;;;;6.80;4.25;;;23.00;54.50;;;;;;6129037;28;80048;-59
2023/05/27 03:09:16;;;;;;;6.70;3.75;;;23.00;54.40;;;;;;6129177;28;80574;-60
2023/05/27 03:12:17;;;;;;;9.40;4.70;;;23.00;54.50;;;;;;6117277;28;81675;-61
2023/05/27 03:15:19;;;;;;;9.60;4.72;;;23.00;54.40;;;;;;6128540;28;80388;-59
2023/05/27 03:18:20;;;;;;;8.85;4.25;;;23.00;54.40;;;;;;6155810;28;83695;-60
2023/05/27 03:21:21;;;;;;;6.60;3.67;;;23.00;54.40;;;;;;6135459;28;82913;-58
2023/05/27 03:24:22;;;;;;;6.68;3.80;;;23.00;54.40;;;;;;6145823;28;83447;-58
2023/05/27 03:27:22;;;;;;;9.25;4.22;;;23.00;54.40;;;;;;6116055;28;80975;-58
2023/05/27 03:30:23;;;;;;;9.50;4.35;;;23.00;54.60;;;;;;6127058;28;82755;-58
2023/05/27 03:33:26;;;;;;;9.40;4.30;;;23.00;54.40;;;;;;6120993;28;83396;-62
2023/05/27 03:36:27;;;;;;;8.65;4.30;;;23.00;54.40;;;;;;6116440;28;81535;-62
2023/05/27 03:39:28;;;;;;;8.52;4.68;;;23.00;54.40;;;;;;6115246;28;82307;-61
2023/05/27 03:42:31;;;;;;;9.13;4.10;;;23.00;54.50;;;;;;6131037;28;82257;-62
2023/05/27 03:45:33;;;;;;;7.35;3.47;;;23.00;54.30;;;;;;6113906;28;80260;-61
2023/05/27 03:48:34;;;;;;;9.18;4.32;;;23.00;54.40;;;;;;6122418;28;82855;-62
2023/05/27 03:51:35;;;;;;;5.95;3.75;;;23.00;55.10;;;;;;6127902;28;81460;-63
2023/05/27 03:54:35;;;;;;;10.45;4.55;;;23.00;54.60;;;;;;6127003;28;83374;-63
2023/05/27 03:57:36;;;;;;;17.10;4.78;;;23.00;54.40;;;;;;6109873;28;85703;-62
2023/05/27 04:00:38;;;;;;;9.82;3.83;;;23.00;54.70;;;;;;6106560;28;83010;-61
2023/05/27 04:03:39;;;;;;;13.73;4.20;;;23.00;54.90;;;;;;6142696;28;83464;-64
2023/05/27 04:06:41;;;;;;;6.93;3.70;;;23.10;55.50;;;;;;6105659;28;83966;-62
2023/05/27 04:09:42;;;;;;;7.63;3.85;;;23.00;54.50;;;;;;6099084;28;81442;-59
2023/05/27 04:12:43;;;;;;;13.70;4.85;;;23.00;54.70;;;;;;6097156;28;81189;-61
2023/05/27 04:15:44;;;;;;;10.77;4.32;;;23.00;54.80;;;;;;6107308;28;81627;-58
2023/05/27 04:18:48;;;;;;;10.55;4.10;;;23.10;55.00;;;;;;6108957;28;80784;-60
2023/05/27 04:21:49;;;;;;;8.10;4.55;;;23.10;55.20;;;;;;6107306;28;83094;-60
2023/05/27 04:24:51;;;;;;;11.30;3.85;;;23.10;55.00;;;;;;6117930;28;83413;-60
2023/05/27 04:27:52;;;;;;;11.90;4.68;;;23.10;54.80;;;;;;6118115;28;82707;-60
2023/05/27 04:30:53;;;;;;;7.93;3.97;;;23.10;54.90;;;;;;6101225;28;80878;-59
2023/05/27 04:34:16;;;;;;;11.23;4.78;;;23.10;54.80;;;;;;6119088;28;82862;-62
2023/05/27 04:37:18;;;;;;;17.60;4.55;;;23.10;55.00;;;;;;6121834;28;82802;-63
2023/05/27 04:40:19;;;;;;;7.15;3.63;;;23.10;55.10;;;;;;6127138;28;83451;-61
2023/05/27 04:43:42;;;;;;;11.45;4.15;;;23.10;55.00;;;;;;6102816;28;82821;-63
2023/05/27 04:46:43;;;;;;;8.57;3.50;;;23.10;55.10;;;;;;6108536;28;83555;-61
2023/05/27 04:49:46;;;;;;;8.40;3.90;;;23.10;55.10;;;;;;6122991;28;82292;-64
2023/05/27 04:52:47;;;;;;;9.45;4.22;;;23.10;55.30;;;;;;6115062;28;86410;-63
2023/05/27 04:55:48;;;;;;;12.80;4.25;;;23.10;55.40;;;;;;6116534;28;81598;-64
2023/05/27 04:58:50;;;;;;;14.05;4.50;;;23.10;55.40;;;;;;6119896;28;82959;-63
2023/05/27 05:02:20;;;;;;;12.70;5.03;;;23.10;55.70;;;;;;6132891;28;83274;-60
2023/05/27 05:05:31;;;;;;;18.23;4.75;;;23.10;55.40;;;;;;6112073;28;87411;-62
2023/05/27 05:08:31;;;;;;;9.45;4.70;;;23.20;56.00;;;;;;6114712;28;83570;-60
2023/05/27 05:11:32;;;;;;;14.57;4.75;;;23.20;55.50;;;;;;6112583;28;82685;-64
2023/05/27 05:14:33;;;;;;;10.48;4.30;;;23.20;56.00;;;;;;6115060;28;83038;-63
2023/05/27 05:17:33;;;;;;;13.50;4.95;;;23.20;55.90;;;;;;6108636;28;82287;-63
2023/05/27 05:20:34;;;;;;;9.00;4.50;;;23.20;56.00;;;;;;6106579;28;83125;-62
2023/05/27 05:23:35;;;;;;;15.02;4.40;;;23.20;55.80;;;;;;6102260;28;83414;-59
2023/05/27 05:26:36;;;;;;;7.25;4.25;;;23.20;56.00;;;;;;6113320;28;82914;-60
2023/05/27 05:29:38;;;;;;;11.77;4.55;;;23.20;56.00;;;;;;6121599;28;84322;-59
2023/05/27 05:32:38;;;;;;;14.73;4.70;;;23.30;56.00;;;;;;6101350;28;82935;-58
2023/05/27 05:35:39;;;;;;;14.70;4.10;;;23.30;56.10;;;;;;6109943;28;83463;-59
2023/05/27 05:39:03;;;;;;;10.30;4.03;;;23.30;56.10;;;;;;6095859;28;82650;-59
2023/05/27 05:42:04;;;;;;;9.07;3.63;;;23.30;56.00;;;;;;6123348;28;83564;-59
2023/05/27 05:45:05;;;;;;;11.45;4.35;;;23.30;56.20;;;;;;6093898;28;83643;-59
2023/05/27 05:48:06;;;;;;;16.83;4.53;;;23.30;55.90;;;;;;6104589;28;83835;-60
2023/05/27 05:51:07;;;;;;;15.82;4.93;;;23.40;55.90;;;;;;6103318;28;83375;-60
2023/05/27 05:54:08;;;;;;;19.67;4.47;;;23.30;56.00;;;;;;6122446;28;80729;-61
2023/05/27 05:57:15;;;;;;;25.88;10.65;;;23.30;56.00;;;;;;6122511;28;83511;-65
2023/05/27 06:00:16;;;;;;;22.05;9.02;;;23.40;56.50;;;;;;6135421;28;84795;-61
2023/05/27 06:03:20;;;;;;;18.63;7.88;;;23.40;56.50;;;;;;6113379;28;81829;-60
2023/05/27 06:06:23;;;;;;;21.77;7.88;;;23.40;56.70;;;;;;6118075;28;83221;-59
2023/05/27 06:09:44;;;;;;;19.20;8.27;;;23.40;56.70;;;;;;6102709;28;80680;-61
2023/05/27 06:12:52;;;;;;;21.77;7.50;;;23.40;56.90;;;;;;6108852;28;84083;-61
2023/05/27 06:15:52;;;;;;;24.13;8.35;;;23.50;56.70;;;;;;6109084;28;80928;-64
2023/05/27 06:18:53;;;;;;;16.92;6.90;;;23.50;56.70;;;;;;6103221;28;85451;-58
2023/05/27 06:21:54;;;;;;;21.60;7.60;;;23.50;56.40;;;;;;6122225;28;85065;-57
2023/05/27 06:24:54;;;;;;;20.38;7.53;;;23.50;56.60;;;;;;6110029;28;82098;-56
2023/05/27 06:28:03;;;;;;;22.95;7.63;;;23.50;56.70;;;;;;6120809;28;81440;-57
2023/05/27 06:31:03;;;;;;;22.10;8.20;;;23.50;56.60;;;;;;6114477;28;81929;-59
2023/05/27 06:34:04;;;;;;;18.80;6.63;;;23.50;56.40;;;;;;6123961;28;83036;-57
2023/05/27 06:37:05;;;;;;;19.77;7.45;;;23.60;56.30;;;;;;6123505;28;83441;-58
2023/05/27 06:40:06;;;;;;;13.10;7.05;;;23.50;56.10;;;;;;6117167;28;80553;-60
2023/05/27 06:43:07;;;;;;;11.77;6.60;;;23.50;56.10;;;;;;6126104;28;82825;-56
2023/05/27 06:46:40;;;;;;;15.30;6.72;;;23.60;56.20;;;;;;6109860;28;81244;-61
2023/05/27 06:49:48;;;;;;;17.63;7.00;;;23.60;55.70;;;;;;6129000;28;83271;-61
2023/05/27 06:52:48;;;;;;;19.55;7.85;;;23.60;55.70;;;;;;6127189;28;82187;-58
2023/05/27 06:56:01;;;;;;;21.60;7.50;;;23.50;55.60;;;;;;6110347;28;80563;-61
2023/05/27 06:59:25;;;;;;;18.58;7.18;;;23.50;55.50;;;;;;6083417;28;84807;-60
2023/05/27 07:02:26;;;;;;;14.00;6.68;;;23.50;55.20;;;;;;6089925;28;83092;-61
2023/05/27 07:05:26;;;;;;;17.23;6.50;;;23.50;54.90;;;;;;6076082;28;83236;-60
2023/05/27 07:08:27;;;;;;;15.27;6.85;;;23.60;54.80;;;;;;6098712;28;80417;-62
2023/05/27 07:11:59;;;;;;;17.92;7.07;;;23.50;54.70;;;;;;6092503;28;81027;-59
2023/05/27 07:15:31;;;;;;;14.93;6.05;;;23.50;54.50;;;;;;6086905;28;81165;-59
2023/05/27 07:18:32;;;;;;;13.43;6.50;;;23.50;54.30;;;;;;6102550;28;80449;-58
2023/05/27 07:21:36;;;;;;;11.35;5.93;;;23.50;54.20;;;;;;6103413;28;82998;-60
2023/05/27 07:24:40;;;;;;;11.77;5.72;;;23.50;53.90;;;;;;6103208;28;82718;-59
2023/05/27 07:27:41;;;;;;;12.02;5.32;;;23.50;53.80;;;;;;6103716;28;82426;-60
2023/05/27 07:30:42;;;;;;;22.42;6.30;;;23.50;53.60;;;;;;6091305;28;83383;-61
2023/05/27 07:33:43;;;;;;;14.93;5.57;;;23.50;53.40;;;;;;6090323;28;83065;-61
2023/05/27 07:36:44;;;;;;;12.23;5.10;;;23.50;53.20;;;;;;6103155;28;80984;-60
2023/05/27 07:39:45;;;;;;;10.80;4.65;;;23.50;53.10;;;;;;6103136;28;81349;-60
2023/05/27 07:42:50;;;;;;;13.18;5.38;;;23.60;53.00;;;;;;6098396;28;81695;-61
2023/05/27 07:45:50;;;;;;;15.38;6.13;;;23.60;53.00;;;;;;6098840;28;83542;-60
2023/05/27 07:48:51;;;;;;;12.35;5.50;;;23.60;53.00;;;;;;6102893;28;82375;-60
2023/05/27 07:51:52;;;;;;;8.40;4.55;;;23.60;52.80;;;;;;6102585;28;83193;-60
2023/05/27 07:54:52;;;;;;;8.90;4.50;;;23.60;52.80;;;;;;6104102;28;83216;-60
2023/05/27 07:57:54;;;;;;;11.77;4.93;;;23.60;52.80;;;;;;6103008;28;83181;-60
2023/05/27 08:00:54;;;;;;;11.55;5.45;;;23.60;52.80;;;;;;6092065;28;83148;-60
2023/05/27 08:03:56;;;;;;;11.20;5.03;;;23.60;52.80;;;;;;6090719;28;80427;-59
2023/05/27 08:07:23;;;;;;;;;;;23.60;52.80;;;;;;6107999;28;83321;-59
2023/05/27 08:10:40;;;;;;;11.90;5.70;;;23.70;52.70;;;;;;6128087;28;83389;-58
2023/05/27 08:14:03;;;;;;;11.40;4.97;;;23.70;52.70;;;;;;6098585;28;81100;-59
2023/05/27 08:17:15;;;;;;;11.10;4.70;;;23.70;52.50;;;;;;6127667;28;87032;-60
2023/05/27 08:20:32;;;;;;;8.80;4.43;;;23.70;52.60;;;;;;6124528;28;83393;-60
2023/05/27 08:23:44;;;;;;;9.55;5.03;;;23.70;52.60;;;;;;6111960;28;83191;-59
2023/05/27 08:27:15;;;;;;;12.85;4.50;;;23.70;52.50;;;;;;6094941;28;81147;-59
2023/05/27 08:30:30;;;;;;;10.55;4.38;;;23.70;52.60;;;;;;6099449;28;80404;-60
2023/05/27 08:33:38;;;;;;;12.52;5.30;;;23.70;52.50;;;;;;6134058;28;82550;-60
2023/05/27 08:36:39;;;;;;;12.48;4.97;;;23.70;52.60;;;;;;6113749;28;83282;-60
2023/05/27 08:39:40;;;;;;;10.07;5.38;;;23.70;52.50;;;;;;6102509;28;82852;-59
2023/05/27 08:43:01;;;;;;;9.57;4.22;;;23.70;52.60;;;;;;6093605;28;82493;-59
2023/05/27 08:46:02;;;;;;;11.32;4.57;;;23.70;52.60;;;;;;6096672;28;80724;-59
2023/05/27 08:49:02;;;;;;;13.75;4.88;;;23.70;52.60;;;;;;6084873;28;82259;-62
2023/05/27 08:52:05;;;;;;;9.63;5.32;;;23.80;52.60;;;;;;6126067;28;82906;-59
2023/05/27 08:55:05;;;;;;;13.43;5.03;;;23.80;52.60;;;;;;6118667;28;83139;-60
2023/05/27 08:58:06;;;;;;;14.00;5.00;;;23.80;52.60;;;;;;6121003;28;83063;-60
2023/05/27 09:01:12;;;;;;;8.70;4.20;;;23.80;52.60;;;;;;6117982;28;82680;-60
2023/05/27 09:04:13;;;;;;;9.85;3.97;;;23.80;52.50;;;;;;6127162;28;82335;-59
2023/05/27 09:07:13;;;;;;;9.38;4.43;;;23.80;52.50;;;;;;6127406;28;80432;-59
2023/05/27 09:10:14;;;;;;;9.57;4.57;;;23.80;52.50;;;;;;6127439;28;80138;-59
2023/05/27 09:13:15;;;;;;;10.55;4.43;;;23.80;52.60;;;;;;6126265;28;81015;-60
2023/05/27 09:16:15;;;;;;;9.80;5.10;;;23.80;52.60;;;;;;6124851;28;83127;-59
2023/05/27 09:19:16;;;;;;;8.05;4.22;;;23.80;52.50;;;;;;6127226;28;80826;-60
2023/05/27 09:22:16;;;;;;;9.52;3.80;;;23.90;52.60;;;;;;6126785;28;80285;-60
2023/05/27 09:25:17;;;;;;;8.85;4.35;;;23.90;52.60;;;;;;6130281;28;80362;-60
2023/05/27 09:28:17;;;;;;;7.72;3.63;;;23.90;52.50;;;;;;6130935;28;80808;-59
2023/05/27 09:31:18;;;;;;;12.07;4.32;;;23.90;52.60;;;;;;6126914;28;83957;-59
2023/05/27 09:34:19;;;;;;;8.93;3.88;;;23.90;52.60;;;;;;6130642;28;82027;-59
2023/05/27 09:37:21;;;;;;;9.63;4.15;;;23.90;52.50;;;;;;6130694;28;80997;-60
2023/05/27 09:40:21;;;;;;;9.60;4.18;;;23.90;52.40;;;;;;6130622;28;80468;-60
2023/05/27 09:43:22;;;;;;;13.88;4.47;;;24.00;52.50;;;;;;6131080;28;80562;-60
2023/05/27 09:46:22;;;;;;;7.28;3.80;;;24.00;52.50;;;;;;6109083;28;80367;-59
2023/05/27 09:49:23;;;;;;;8.20;4.35;;;24.00;52.50;;;;;;6113915;28;80725;-60
2023/05/27 09:52:23;;;;;;;8.50;4.00;;;24.00;52.50;;;;;;6112514;28;80683;-59
2023/05/27 09:55:24;;;;;;;7.03;3.65;;;24.00;52.50;;;;;;6110796;28;81675;-60
2023/05/27 09:58:25;;;;;;;8.45;3.88;;;24.00;52.50;;;;;;6118116;28;81018;-60
2023/05/27 10:01:25;;;;;;;7.93;3.75;;;24.00;52.30;;;;;;6116818;28;80430;-59
2023/05/27 10:04:26;;;;;;;10.93;3.45;;;24.00;52.30;;;;;;6118817;28;80535;-61
2023/05/27 10:07:26;;;;;;;13.70;4.28;;;24.00;52.30;;;;;;6131092;28;80555;-63
2023/05/27 10:10:27;;;;;;;8.63;3.95;;;24.10;52.30;;;;;;6117658;28;80734;-60
2023/05/27 10:13:27;;;;;;;9.55;3.85;;;24.00;52.20;;;;;;6123132;28;80329;-60
2023/05/27 10:16:28;;;;;;;10.60;4.45;;;24.00;51.70;;;;;;6106677;28;80642;-62
2023/05/27 10:19:28;;;;;;;12.23;4.55;;;24.00;50.40;;;;;;6106421;28;80600;-62
2023/05/27 10:22:29;;;;;;;15.48;5.20;;;24.00;50.60;;;;;;6102350;28;82026;-61
2023/05/27 10:25:29;;;;;;;19.20;5.47;;;24.00;49.50;;;;;;6117462;28;80412;-63
2023/05/27 10:28:31;;;;;;;21.45;6.47;;;24.00;49.90;;;;;;6119060;28;80851;-63
2023/05/27 10:31:31;;;;;;;16.88;6.03;;;24.00;49.90;;;;;;6106859;28;81736;-67
2023/05/27 10:34:32;;;;;;;16.85;5.50;;;24.00;49.70;;;;;;6111876;28;81998;-58
2023/05/27 10:37:32;;;;;;;17.02;5.97;;;24.10;49.30;;;;;;6112259;28;85239;-57
2023/05/27 10:40:33;;;;;;;20.08;6.75;;;24.10;48.30;;;;;;6121543;28;80478;-59
2023/05/27 10:43:33;;;;;;;21.63;6.45;;;24.10;49.00;;;;;;6109169;28;81799;-57
2023/05/27 10:46:34;;;;;;;19.10;5.68;;;24.10;48.10;;;;;;6112039;28;81876;-58
2023/05/27 10:49:38;;;;;;;18.65;6.50;;;24.10;47.50;;;;;;6127513;28;80526;-57
2023/05/27 10:52:39;;;;;;;15.38;7.32;;;24.10;46.50;;;;;;6118932;28;80661;-55
2023/05/27 10:55:41;;;;;;;19.30;7.35;;;24.10;45.00;;;;;;6123467;28;80576;-57
2023/05/27 10:58:41;;;;;;;11.52;6.18;;;24.10;43.60;;;;;;6117570;28;80227;-57
2023/05/27 11:01:42;;;;;;;14.15;6.47;;;24.10;43.30;;;;;;6130319;28;82317;-56
2023/05/27 11:04:42;;;;;;;11.35;6.38;;;24.10;42.60;;;;;;6128963;28;81132;-56
2023/05/27 11:07:43;;;;;;;11.95;5.18;;;24.10;41.50;;;;;;6112209;28;80625;-59
2023/05/27 11:10:43;;;;;;;11.02;4.95;;;23.90;40.50;;;;;;6115615;28;81986;-52
2023/05/27 11:13:44;;;;;;;13.25;5.15;;;24.00;40.30;;;;;;6121979;28;81874;-57
2023/05/27 11:16:44;;;;;;;7.90;4.82;;;24.00;39.40;;;;;;6135433;28;82477;-59
2023/05/27 11:19:45;;;;;;;11.27;5.28;;;24.00;38.70;;;;;;6130799;28;80443;-60
2023/05/27 11:22:46;;;;;;;10.35;5.15;;;24.00;39.00;;;;;;6122531;28;80571;-57
2023/05/27 11:25:47;;;;;;;8.52;5.35;;;23.90;37.90;;;;;;6122188;28;82753;-59
2023/05/27 11:28:47;;;;;;;9.90;5.03;;;23.80;37.30;;;;;;6117316;28;80453;-63
2023/05/27 11:31:48;;;;;;;11.20;5.75;;;23.90;37.50;;;;;;6122858;28;80417;-64
2023/05/27 11:34:48;;;;;;;10.95;5.03;;;23.90;38.20;;;;;;6124086;28;81414;-62
2023/05/27 11:37:49;;;;;;;9.30;4.78;;;24.00;38.70;;;;;;6128042;28;83667;-62
2023/05/27 11:40:49;;;;;;;10.07;4.97;;;24.00;39.20;;;;;;6130374;28;84531;-63
2023/05/27 11:43:50;;;;;;;9.40;5.13;;;24.10;39.80;;;;;;6125416;28;80957;-62
2023/05/27 11:46:50;;;;;;;8.75;5.50;;;24.10;40.20;;;;;;6126006;28;81270;-58
2023/05/27 11:49:51;;;;;;;13.18;5.55;;;24.20;40.70;;;;;;6127062;28;80842;-57
2023/05/27 11:52:51;;;;;;;12.02;5.47;;;24.20;40.90;;;;;;6125511;28;81269;-55
2023/05/27 11:55:52;;;;;;;9.02;4.70;;;24.30;41.20;;;;;;6125110;28;80832;-57
2023/05/27 11:58:52;;;;;;;9.50;5.85;;;24.30;41.50;;;;;;6124493;28;81872;-57
2023/05/27 12:01:53;;;;;;;9.65;5.22;;;24.30;41.90;;;;;;6130161;28;80362;-56
2023/05/27 12:04:54;;;;;;;9.95;4.82;;;24.40;41.90;;;;;;6127250;28;81357;-58
2023/05/27 12:07:54;;;;;;;9.02;4.40;;;24.40;42.10;;;;;;6105242;28;81011;-59
2023/05/27 12:10:55;;;;;;;5.93;4.55;;;24.40;42.30;;;;;;6111026;28;80459;-60
2023/05/27 12:13:55;;;;;;;11.07;5.18;;;24.40;41.70;;;;;;6106432;28;80635;-59
2023/05/27 12:16:56;;;;;;;18.15;5.50;;;24.20;39.00;;;;;;6121528;28;80751;-58
2023/05/27 12:19:56;;;;;;;11.80;4.97;;;24.20;38.80;;;;;;6124894;28;80555;-59
2023/05/27 12:22:57;;;;;;;11.77;4.63;;;24.10;38.70;;;;;;6123536;28;81576;-59
2023/05/27 12:25:58;;;;;;;8.77;4.32;;;24.10;38.50;;;;;;6123534;28;80636;-58
2023/05/27 12:28:58;;;;;;;9.43;4.63;;;24.00;37.50;;;;;;6119383;28;80576;-58
2023/05/27 12:31:59;;;;;;;8.23;4.30;;;24.00;37.70;;;;;;6120722;28;81003;-58
2023/05/27 12:34:59;;;;;;;11.15;5.25;;;24.10;38.30;;;;;;6108035;28;84094;-59
2023/05/27 12:38:00;;;;;;;8.48;4.43;;;24.10;38.80;;;;;;6108074;28;80578;-58
2023/05/27 12:41:00;;;;;;;8.27;4.43;;;24.10;39.10;;;;;;6097383;28;83825;-59
2023/05/27 12:44:01;;;;;;;6.25;4.40;;;24.10;39.80;;;;;;6112157;28;82780;-59
2023/05/27 12:47:01;;;;;;;10.57;4.57;;;24.10;39.90;;;;;;6105096;28;80468;-56
2023/05/27 12:50:03;;;;;;;11.02;4.40;;;24.20;40.40;;;;;;6111050;28;80095;-57
2023/05/27 12:53:03;;;;;;;7.47;4.00;;;24.20;40.10;;;;;;6104520;28;83059;-58
2023/05/27 12:56:04;;;;;;;9.48;4.38;;;24.20;40.70;;;;;;6113509;28;80410;-59
2023/05/27 12:59:04;;;;;;;11.90;4.55;;;24.20;40.90;;;;;;6118542;28;84085;-54
2023/05/27 13:02:06;;;;;;;7.95;4.60;;;24.30;41.00;;;;;;6113688;28;82357;-63
2023/05/27 13:05:07;;;;;;;12.95;4.55;;;24.30;41.10;;;;;;6119854;28;86929;-64
2023/05/27 13:08:07;;;;;;;12.38;3.65;;;24.30;41.40;;;;;;6114540;28;80584;-66
2023/05/27 13:11:08;;;;;;;14.40;4.65;;;24.30;42.50;;;;;;6117878;28;80841;-64
2023/05/27 13:14:08;;;;;;;5.97;3.95;;;24.30;42.50;;;;;;6114594;28;80969;-66
2023/05/27 13:17:09;;;;;;;7.70;4.40;;;24.30;41.70;;;;;;6115394;28;80919;-62
2023/05/27 13:20:09;;;;;;;9.77;3.95;;;24.30;41.90;;;;;;6119306;28;81808;-61
2023/05/27 13:23:11;;;;;;;6.85;4.15;;;24.30;42.60;;;;;;6119479;28;80709;-64
2023/05/27 13:26:11;;;;;;;11.43;3.85;;;24.30;42.70;;;;;;6119751;28;80542;-61
2023/05/27 13:29:12;;;;;;;6.93;3.90;;;24.30;42.80;;;;;;6123047;28;81120;-64
2023/05/27 13:32:13;;;;;;;11.88;4.05;;;24.30;43.10;;;;;;6123349;28;80832;-64
2023/05/27 13:35:14;;;;;;;6.85;4.22;;;24.40;43.30;;;;;;6117908;28;81621;-62
2023/05/27 13:38:16;;;;;;;7.93;3.97;;;24.30;42.60;;;;;;6119779;28;84887;-66
2023/05/27 13:41:16;;;;;;;11.95;4.20;;;24.40;43.50;;;;;;6127871;28;80479;-66
2023/05/27 13:44:17;;;;;;;12.25;4.22;;;24.30;42.90;;;;;;6130186;28;84390;-71
2023/05/27 13:47:17;;;;;;;6.70;3.72;;;24.40;43.20;;;;;;6126400;28;80740;-72
2023/05/27 13:50:18;;;;;;;6.40;3.70;;;24.30;43.20;;;;;;6125460;28;80403;-70
2023/05/27 13:53:18;;;;;;;11.73;4.60;;;24.40;42.60;;;;;;6136219;28;80468;-65
2023/05/27 13:56:19;;;;;;;7.05;3.78;;;24.40;43.40;;;;;;6111590;28;80737;-66
2023/05/27 13:59:20;;;;;;;8.82;3.70;;;24.40;43.50;;;;;;6123794;28;82076;-68
2023/05/27 14:02:20;;;;;;;12.65;4.40;;;24.30;43.80;;;;;;6134350;28;80444;-64
2023/05/27 14:05:21;;;;;;;14.50;4.82;;;24.30;44.00;;;;;;6135025;28;80472;-64
2023/05/27 14:08:21;;;;;;;13.32;4.75;;;24.40;44.10;;;;;;6132927;28;80381;-65
2023/05/27 14:11:22;;;;;;;10.73;4.65;;;24.40;44.50;;;;;;6128046;28;82369;-63
2023/05/27 14:14:23;;;;;;;10.50;4.13;;;24.30;43.70;;;;;;6140408;28;80993;-61
2023/05/27 14:17:23;;;;;;;12.10;3.83;;;24.30;44.00;;;;;;6130579;28;80620;-63
2023/05/27 14:20:24;;;;;;;7.32;3.90;;;24.30;43.70;;;;;;6130113;28;81524;-64
2023/05/27 14:23:25;;;;;;;9.93;4.75;;;24.30;44.30;;;;;;6111290;28;80420;-61
2023/05/27 14:26:25;;;;;;;8.63;4.15;;;24.30;44.30;;;;;;6112111;28;80544;-66
2023/05/27 14:29:26;;;;;;;8.75;4.65;;;24.30;44.40;;;;;;6109691;28;82171;-62
2023/05/27 14:32:26;;;;;;;14.05;6.32;;;24.30;44.50;;;;;;6114350;28;80570;-62
2023/05/27 14:35:27;;;;;;;11.13;4.80;;;24.30;44.50;;;;;;6114273;28;80960;-62
2023/05/27 14:38:28;;;;;;;9.82;4.70;;;24.30;43.50;;;;;;6112375;28;80277;-67
2023/05/27 14:41:28;;;;;;;8.88;5.15;;;24.20;44.30;;;;;;6116189;28;81363;-63
2023/05/27 14:44:29;;;;;;;11.18;5.03;;;24.20;44.40;;;;;;6125701;28;81230;-66
2023/05/27 14:47:29;;;;;;;9.73;4.93;;;24.20;44.50;;;;;;6128467;28;80643;-65
2023/05/27 14:50:30;;;;;;;11.57;5.05;;;24.20;44.80;;;;;;6139454;28;80379;-65
2023/05/27 14:53:30;;;;;;;7.38;4.40;;;24.20;44.90;;;;;;6140327;28;81827;-66
2023/05/27 14:56:31;;;;;;;10.13;4.65;;;24.10;43.50;;;;;;6128916;28;81514;-67
2023/05/27 14:59:31;;;;;;;9.50;4.95;;;24.20;44.70;;;;;;6117932;28;80421;-67
2023/05/27 15:02:32;;;;;;;8.60;4.13;;;24.20;44.00;;;;;;6109833;28;80838;-68
2023/05/27 15:05:32;;;;;;;8.07;4.00;;;24.20;43.40;;;;;;6108761;28;80374;-67
2023/05/27 15:08:33;;;;;;;7.10;3.85;;;24.10;44.40;;;;;;6110472;28;80487;-67
2023/05/27 15:11:36;;;;;;;10.80;4.38;;;24.10;44.90;;;;;;6109345;28;81903;-64
2023/05/27 15:14:36;;;;;;;26.20;4.28;;;24.10;45.10;;;;;;6125573;28;81109;-63
2023/05/27 15:17:37;;;;;;;5.03;3.13;;;24.10;44.00;;;;;;6134337;28;81502;-64
2023/05/27 15:20:37;;;;;;;6.47;3.60;;;24.10;45.30;;;;;;6125944;28;81005;-63
2023/05/27 15:23:38;;;;;;;5.25;3.42;;;24.10;45.20;;;;;;6126364;28;80457;-64
2023/05/27 15:26:38;;;;;;;4.53;3.38;;;24.10;45.40;;;;;;6127047;28;81546;-63
2023/05/27 15:29:39;;;;;;;8.00;3.35;;;24.10;44.50;;;;;;6124084;28;87848;-68
2023/05/27 15:32:39;;;;;;;4.85;3.20;;;24.10;45.00;;;;;;6127873;28;80988;-68
2023/05/27 15:35:40;;;;;;;6.88;4.20;;;24.10;44.50;;;;;;6127732;28;80895;-67
2023/05/27 15:38:41;;;;;;;8.75;5.95;;;24.00;43.00;;;;;;6127079;28;83042;-64
2023/05/27 15:41:41;;;;;;;8.75;5.30;;;24.00;41.10;;;;;;6121324;28;80547;-67